Taska, Mississippi
Current Conditions -  °F | °C
As of 9:55 PM on Sunday 23 Nov 2014 (Local Time) from KOLV Reporting Station
Scattered Clouds Scattered Clouds  
Wind Chill: 59°   Ceiling: Unl
Heat Index: 59°   Visibility: 10mi
Dew Point: 59°   Wind: 13mph
Humidity: 100%   Direction: 200°SSW
Pressure: 29.47"   Gusts: 21mph
Location:  34.8818°N, 89.5148°W
Report Text: KOLV 240355Z AUTO 20011G18KT 10SM SCT015 15/15 A2947 RMK A01 P000
Loading
Personal Weather Stations






























Interactive Weather Map New forecast layout! Learn more

10-Day Weather Forecast

Advertisements
Track Severe Weather on mobile